sensor_id;sensor_type;location;lat;lon;timestamp;P1;durP1;ratioP1;P2;durP2;ratioP2
5349;SDS011;2697;42.144;24.794;2023-12-20T00:01:00;38.17;;;18.00;;
5349;SDS011;2697;42.144;24.794;2023-12-20T00:03:26;51.03;;;20.90;;
5349;SDS011;2697;42.144;24.794;2023-12-20T00:05:51;46.03;;;20.87;;
5349;SDS011;2697;42.144;24.794;2023-12-20T00:08:17;52.77;;;21.57;;
5349;SDS011;2697;42.144;24.794;2023-12-20T00:10:45;43.13;;;19.00;;
5349;SDS011;2697;42.144;24.794;2023-12-20T00:13:10;51.63;;;21.13;;
5349;SDS011;2697;42.144;24.794;2023-12-20T00:15:36;45.83;;;19.70;;
5349;SDS011;2697;42.144;24.794;2023-12-20T00:18:01;32.23;;;18.30;;
5349;SDS011;2697;42.144;24.794;2023-12-20T00:20:28;37.87;;;20.37;;
5349;SDS011;2697;42.144;24.794;2023-12-20T00:22:55;40.83;;;19.23;;
5349;SDS011;2697;42.144;24.794;2023-12-20T00:25:22;41.10;;;20.57;;
5349;SDS011;2697;42.144;24.794;2023-12-20T00:27:48;50.07;;;22.97;;
5349;SDS011;2697;42.144;24.794;2023-12-20T00:30:13;52.33;;;23.90;;
5349;SDS011;2697;42.144;24.794;2023-12-20T00:32:38;53.00;;;25.00;;
5349;SDS011;2697;42.144;24.794;2023-12-20T00:35:04;57.27;;;25.13;;
5349;SDS011;2697;42.144;24.794;2023-12-20T00:37:30;59.57;;;24.43;;
5349;SDS011;2697;42.144;24.794;2023-12-20T00:39:55;59.87;;;26.80;;
5349;SDS011;2697;42.144;24.794;2023-12-20T00:42:20;52.97;;;23.77;;
5349;SDS011;2697;42.144;24.794;2023-12-20T00:44:46;62.83;;;27.27;;
5349;SDS011;2697;42.144;24.794;2023-12-20T00:47:11;55.93;;;26.17;;
5349;SDS011;2697;42.144;24.794;2023-12-20T00:49:36;66.67;;;27.50;;
5349;SDS011;2697;42.144;24.794;2023-12-20T00:52:02;59.37;;;26.80;;
5349;SDS011;2697;42.144;24.794;2023-12-20T00:54:27;54.77;;;25.37;;
5349;SDS011;2697;42.144;24.794;2023-12-20T00:56:53;57.67;;;27.00;;
5349;SDS011;2697;42.144;24.794;2023-12-20T00:59:18;61.27;;;25.00;;
5349;SDS011;2697;42.144;24.794;2023-12-20T01:01:44;60.33;;;26.77;;
5349;SDS011;2697;42.144;24.794;2023-12-20T01:04:09;59.70;;;28.50;;
5349;SDS011;2697;42.144;24.794;2023-12-20T01:06:35;66.60;;;27.47;;
5349;SDS011;2697;42.144;24.794;2023-12-20T01:09:00;74.60;;;28.67;;
5349;SDS011;2697;42.144;24.794;2023-12-20T01:11:27;69.23;;;28.10;;
5349;SDS011;2697;42.144;24.794;2023-12-20T01:13:53;66.00;;;26.50;;
5349;SDS011;2697;42.144;24.794;2023-12-20T01:16:18;52.90;;;25.73;;
5349;SDS011;2697;42.144;24.794;2023-12-20T01:18:43;62.47;;;28.57;;
5349;SDS011;2697;42.144;24.794;2023-12-20T01:21:09;55.97;;;27.43;;
5349;SDS011;2697;42.144;24.794;2023-12-20T01:23:34;66.70;;;30.23;;
5349;SDS011;2697;42.144;24.794;2023-12-20T01:25:59;60.33;;;27.93;;
5349;SDS011;2697;42.144;24.794;2023-12-20T01:28:25;61.80;;;27.97;;
5349;SDS011;2697;42.144;24.794;2023-12-20T01:30:51;70.67;;;30.73;;
5349;SDS011;2697;42.144;24.794;2023-12-20T01:33:16;78.93;;;31.07;;
5349;SDS011;2697;42.144;24.794;2023-12-20T01:35:42;69.37;;;28.20;;
5349;SDS011;2697;42.144;24.794;2023-12-20T01:38:07;65.10;;;29.43;;
5349;SDS011;2697;42.144;24.794;2023-12-20T01:40:32;69.67;;;28.53;;
5349;SDS011;2697;42.144;24.794;2023-12-20T01:43:01;73.10;;;30.53;;
5349;SDS011;2697;42.144;24.794;2023-12-20T01:45:30;64.80;;;28.43;;
5349;SDS011;2697;42.144;24.794;2023-12-20T01:47:56;63.57;;;26.07;;
5349;SDS011;2697;42.144;24.794;2023-12-20T01:50:23;61.33;;;27.47;;
5349;SDS011;2697;42.144;24.794;2023-12-20T01:52:49;60.53;;;26.40;;
5349;SDS011;2697;42.144;24.794;2023-12-20T01:55:17;57.00;;;22.43;;
5349;SDS011;2697;42.144;24.794;2023-12-20T01:57:46;44.67;;;18.97;;
5349;SDS011;2697;42.144;24.794;2023-12-20T02:00:12;61.20;;;21.23;;
5349;SDS011;2697;42.144;24.794;2023-12-20T02:02:39;43.23;;;19.63;;
5349;SDS011;2697;42.144;24.794;2023-12-20T02:05:09;55.03;;;20.33;;
5349;SDS011;2697;42.144;24.794;2023-12-20T02:07:34;40.53;;;18.37;;
5349;SDS011;2697;42.144;24.794;2023-12-20T02:10:00;39.60;;;18.53;;
5349;SDS011;2697;42.144;24.794;2023-12-20T02:12:26;37.63;;;18.30;;
5349;SDS011;2697;42.144;24.794;2023-12-20T02:14:52;35.93;;;16.90;;
5349;SDS011;2697;42.144;24.794;2023-12-20T02:17:19;43.30;;;19.30;;
5349;SDS011;2697;42.144;24.794;2023-12-20T02:19:44;36.37;;;18.53;;
5349;SDS011;2697;42.144;24.794;2023-12-20T02:22:10;42.13;;;17.80;;
5349;SDS011;2697;42.144;24.794;2023-12-20T02:24:36;33.80;;;17.50;;
5349;SDS011;2697;42.144;24.794;2023-12-20T02:27:01;45.17;;;20.40;;
5349;SDS011;2697;42.144;24.794;2023-12-20T02:29:29;44.53;;;21.67;;
5349;SDS011;2697;42.144;24.794;2023-12-20T02:31:54;42.50;;;20.70;;
5349;SDS011;2697;42.144;24.794;2023-12-20T02:34:20;33.63;;;16.43;;
5349;SDS011;2697;42.144;24.794;2023-12-20T02:36:45;37.83;;;16.57;;
5349;SDS011;2697;42.144;24.794;2023-12-20T02:39:10;45.70;;;17.83;;
5349;SDS011;2697;42.144;24.794;2023-12-20T02:41:36;32.47;;;16.87;;
5349;SDS011;2697;42.144;24.794;2023-12-20T02:44:01;42.47;;;17.63;;
5349;SDS011;2697;42.144;24.794;2023-12-20T02:46:27;31.23;;;16.27;;
5349;SDS011;2697;42.144;24.794;2023-12-20T02:48:52;31.43;;;14.83;;
5349;SDS011;2697;42.144;24.794;2023-12-20T02:51:18;37.93;;;17.43;;
5349;SDS011;2697;42.144;24.794;2023-12-20T02:53:43;34.57;;;16.80;;
5349;SDS011;2697;42.144;24.794;2023-12-20T02:56:08;31.23;;;15.77;;
5349;SDS011;2697;42.144;24.794;2023-12-20T02:58:35;39.13;;;17.90;;
5349;SDS011;2697;42.144;24.794;2023-12-20T03:01:01;40.53;;;17.63;;
5349;SDS011;2697;42.144;24.794;2023-12-20T03:03:26;36.13;;;15.93;;
5349;SDS011;2697;42.144;24.794;2023-12-20T03:05:51;41.40;;;18.40;;
5349;SDS011;2697;42.144;24.794;2023-12-20T03:08:17;33.93;;;15.63;;
5349;SDS011;2697;42.144;24.794;2023-12-20T03:10:42;37.13;;;16.27;;
5349;SDS011;2697;42.144;24.794;2023-12-20T03:13:07;35.80;;;13.30;;
5349;SDS011;2697;42.144;24.794;2023-12-20T03:15:33;28.03;;;14.73;;
5349;SDS011;2697;42.144;24.794;2023-12-20T03:17:58;32.80;;;15.00;;
5349;SDS011;2697;42.144;24.794;2023-12-20T03:20:24;30.30;;;14.30;;
5349;SDS011;2697;42.144;24.794;2023-12-20T03:22:51;29.80;;;14.60;;
5349;SDS011;2697;42.144;24.794;2023-12-20T03:25:16;27.27;;;15.00;;
5349;SDS011;2697;42.144;24.794;2023-12-20T03:27:42;29.37;;;14.50;;
5349;SDS011;2697;42.144;24.794;2023-12-20T03:30:07;29.43;;;15.07;;
5349;SDS011;2697;42.144;24.794;2023-12-20T03:32:33;35.37;;;15.93;;
5349;SDS011;2697;42.144;24.794;2023-12-20T03:34:58;38.10;;;16.57;;
5349;SDS011;2697;42.144;24.794;2023-12-20T03:37:24;38.30;;;16.47;;
5349;SDS011;2697;42.144;24.794;2023-12-20T03:39:49;45.53;;;19.27;;
5349;SDS011;2697;42.144;24.794;2023-12-20T03:42:14;46.30;;;20.90;;
5349;SDS011;2697;42.144;24.794;2023-12-20T03:44:40;58.93;;;22.40;;
5349;SDS011;2697;42.144;24.794;2023-12-20T03:47:05;48.53;;;22.97;;
5349;SDS011;2697;42.144;24.794;2023-12-20T03:49:31;57.33;;;24.97;;
5349;SDS011;2697;42.144;24.794;2023-12-20T03:51:56;46.60;;;20.57;;
5349;SDS011;2697;42.144;24.794;2023-12-20T03:54:22;52.63;;;23.00;;
5349;SDS011;2697;42.144;24.794;2023-12-20T03:56:47;47.27;;;21.87;;
5349;SDS011;2697;42.144;24.794;2023-12-20T03:59:13;47.77;;;18.90;;
5349;SDS011;2697;42.144;24.794;2023-12-20T04:01:42;50.40;;;19.63;;
5349;SDS011;2697;42.144;24.794;2023-12-20T04:04:09;57.23;;;23.67;;
5349;SDS011;2697;42.144;24.794;2023-12-20T04:06:35;49.87;;;22.67;;
5349;SDS011;2697;42.144;24.794;2023-12-20T04:09:00;54.80;;;22.80;;
5349;SDS011;2697;42.144;24.794;2023-12-20T04:11:26;43.47;;;21.20;;
5349;SDS011;2697;42.144;24.794;2023-12-20T04:13:51;51.23;;;21.40;;
5349;SDS011;2697;42.144;24.794;2023-12-20T04:16:17;51.27;;;21.73;;
5349;SDS011;2697;42.144;24.794;2023-12-20T04:18:42;54.50;;;22.10;;
5349;SDS011;2697;42.144;24.794;2023-12-20T04:21:07;68.63;;;30.77;;
5349;SDS011;2697;42.144;24.794;2023-12-20T04:23:33;55.10;;;22.80;;
5349;SDS011;2697;42.144;24.794;2023-12-20T04:25:58;97.80;;;44.90;;
5349;SDS011;2697;42.144;24.794;2023-12-20T04:28:23;75.23;;;34.03;;
5349;SDS011;2697;42.144;24.794;2023-12-20T04:30:49;54.07;;;25.70;;
5349;SDS011;2697;42.144;24.794;2023-12-20T04:33:14;55.00;;;27.53;;
5349;SDS011;2697;42.144;24.794;2023-12-20T04:35:39;68.40;;;28.60;;
5349;SDS011;2697;42.144;24.794;2023-12-20T04:38:06;57.53;;;24.80;;
5349;SDS011;2697;42.144;24.794;2023-12-20T04:40:31;60.20;;;26.30;;
5349;SDS011;2697;42.144;24.794;2023-12-20T04:42:57;75.83;;;30.07;;
5349;SDS011;2697;42.144;24.794;2023-12-20T04:45:22;98.10;;;42.03;;
5349;SDS011;2697;42.144;24.794;2023-12-20T04:47:49;71.10;;;32.40;;
5349;SDS011;2697;42.144;24.794;2023-12-20T04:50:15;64.10;;;28.00;;
5349;SDS011;2697;42.144;24.794;2023-12-20T04:52:41;61.67;;;27.10;;
5349;SDS011;2697;42.144;24.794;2023-12-20T04:55:07;57.00;;;25.47;;
5349;SDS011;2697;42.144;24.794;2023-12-20T04:57:33;71.37;;;33.77;;
5349;SDS011;2697;42.144;24.794;2023-12-20T04:59:59;89.73;;;37.90;;
5349;SDS011;2697;42.144;24.794;2023-12-20T05:02:24;83.60;;;35.53;;
5349;SDS011;2697;42.144;24.794;2023-12-20T05:04:50;77.13;;;33.87;;
5349;SDS011;2697;42.144;24.794;2023-12-20T05:07:15;75.37;;;36.13;;
5349;SDS011;2697;42.144;24.794;2023-12-20T05:09:41;72.93;;;30.93;;
5349;SDS011;2697;42.144;24.794;2023-12-20T05:12:06;56.33;;;22.90;;
5349;SDS011;2697;42.144;24.794;2023-12-20T05:14:32;46.03;;;24.13;;
5349;SDS011;2697;42.144;24.794;2023-12-20T05:16:57;84.30;;;26.37;;
5349;SDS011;2697;42.144;24.794;2023-12-20T05:19:23;64.77;;;29.33;;
5349;SDS011;2697;42.144;24.794;2023-12-20T05:21:49;88.90;;;33.13;;
5349;SDS011;2697;42.144;24.794;2023-12-20T05:24:14;65.87;;;29.10;;
5349;SDS011;2697;42.144;24.794;2023-12-20T05:26:40;70.63;;;30.87;;
5349;SDS011;2697;42.144;24.794;2023-12-20T05:29:05;69.13;;;30.27;;
5349;SDS011;2697;42.144;24.794;2023-12-20T05:31:31;66.70;;;31.27;;
5349;SDS011;2697;42.144;24.794;2023-12-20T05:33:57;62.17;;;28.07;;
5349;SDS011;2697;42.144;24.794;2023-12-20T05:36:22;67.80;;;27.90;;
5349;SDS011;2697;42.144;24.794;2023-12-20T05:38:47;63.93;;;30.93;;
5349;SDS011;2697;42.144;24.794;2023-12-20T05:41:13;60.60;;;28.17;;
5349;SDS011;2697;42.144;24.794;2023-12-20T05:43:39;91.57;;;41.27;;
5349;SDS011;2697;42.144;24.794;2023-12-20T05:46:04;83.73;;;38.10;;
5349;SDS011;2697;42.144;24.794;2023-12-20T05:48:30;115.40;;;46.57;;
5349;SDS011;2697;42.144;24.794;2023-12-20T05:50:55;70.93;;;33.50;;
5349;SDS011;2697;42.144;24.794;2023-12-20T05:53:21;94.90;;;42.13;;
5349;SDS011;2697;42.144;24.794;2023-12-20T05:55:46;100.73;;;43.80;;
5349;SDS011;2697;42.144;24.794;2023-12-20T05:58:12;103.97;;;45.27;;
5349;SDS011;2697;42.144;24.794;2023-12-20T06:00:37;88.80;;;39.20;;
5349;SDS011;2697;42.144;24.794;2023-12-20T06:03:03;85.87;;;38.47;;
5349;SDS011;2697;42.144;24.794;2023-12-20T06:05:30;72.93;;;33.37;;
5349;SDS011;2697;42.144;24.794;2023-12-20T06:07:55;69.20;;;30.93;;
5349;SDS011;2697;42.144;24.794;2023-12-20T06:10:26;62.37;;;29.50;;
5349;SDS011;2697;42.144;24.794;2023-12-20T06:12:51;63.73;;;25.80;;
5349;SDS011;2697;42.144;24.794;2023-12-20T06:15:17;62.43;;;29.90;;
5349;SDS011;2697;42.144;24.794;2023-12-20T06:17:42;73.83;;;31.77;;
5349;SDS011;2697;42.144;24.794;2023-12-20T06:20:08;71.00;;;30.30;;
5349;SDS011;2697;42.144;24.794;2023-12-20T06:22:34;61.57;;;26.00;;
5349;SDS011;2697;42.144;24.794;2023-12-20T06:25:01;59.70;;;28.10;;
5349;SDS011;2697;42.144;24.794;2023-12-20T06:27:27;70.07;;;29.23;;
5349;SDS011;2697;42.144;24.794;2023-12-20T06:29:53;55.77;;;26.90;;
5349;SDS011;2697;42.144;24.794;2023-12-20T06:32:19;69.97;;;26.37;;
5349;SDS011;2697;42.144;24.794;2023-12-20T06:34:44;52.30;;;22.77;;
5349;SDS011;2697;42.144;24.794;2023-12-20T06:37:09;56.90;;;24.67;;
5349;SDS011;2697;42.144;24.794;2023-12-20T06:39:35;61.67;;;26.90;;
5349;SDS011;2697;42.144;24.794;2023-12-20T06:42:00;57.60;;;25.27;;
5349;SDS011;2697;42.144;24.794;2023-12-20T06:44:26;55.37;;;24.43;;
5349;SDS011;2697;42.144;24.794;2023-12-20T06:46:51;57.80;;;26.57;;
5349;SDS011;2697;42.144;24.794;2023-12-20T06:49:16;64.97;;;26.53;;
5349;SDS011;2697;42.144;24.794;2023-12-20T06:51:43;59.40;;;25.53;;
5349;SDS011;2697;42.144;24.794;2023-12-20T06:54:08;71.53;;;27.77;;
5349;SDS011;2697;42.144;24.794;2023-12-20T06:56:34;67.90;;;29.30;;
5349;SDS011;2697;42.144;24.794;2023-12-20T06:58:59;72.03;;;28.70;;
5349;SDS011;2697;42.144;24.794;2023-12-20T07:01:25;62.40;;;30.60;;
5349;SDS011;2697;42.144;24.794;2023-12-20T07:03:50;67.03;;;27.57;;
5349;SDS011;2697;42.144;24.794;2023-12-20T07:06:15;61.17;;;29.03;;
5349;SDS011;2697;42.144;24.794;2023-12-20T07:08:42;60.30;;;30.00;;
5349;SDS011;2697;42.144;24.794;2023-12-20T07:11:07;56.17;;;28.40;;
5349;SDS011;2697;42.144;24.794;2023-12-20T07:13:32;67.10;;;29.20;;
5349;SDS011;2697;42.144;24.794;2023-12-20T07:15:58;56.67;;;30.33;;
5349;SDS011;2697;42.144;24.794;2023-12-20T07:18:23;61.13;;;28.47;;
5349;SDS011;2697;42.144;24.794;2023-12-20T07:20:49;78.40;;;32.80;;
5349;SDS011;2697;42.144;24.794;2023-12-20T07:23:14;67.73;;;30.73;;
5349;SDS011;2697;42.144;24.794;2023-12-20T07:25:39;62.53;;;30.77;;
5349;SDS011;2697;42.144;24.794;2023-12-20T07:28:05;60.80;;;27.13;;
5349;SDS011;2697;42.144;24.794;2023-12-20T07:30:31;50.77;;;25.77;;
5349;SDS011;2697;42.144;24.794;2023-12-20T07:32:56;60.53;;;28.23;;
5349;SDS011;2697;42.144;24.794;2023-12-20T07:35:23;128.47;;;55.40;;
5349;SDS011;2697;42.144;24.794;2023-12-20T07:37:48;82.97;;;40.40;;
5349;SDS011;2697;42.144;24.794;2023-12-20T07:40:14;88.27;;;40.73;;
5349;SDS011;2697;42.144;24.794;2023-12-20T07:42:42;73.40;;;36.03;;
5349;SDS011;2697;42.144;24.794;2023-12-20T07:45:07;74.13;;;36.50;;
5349;SDS011;2697;42.144;24.794;2023-12-20T07:47:34;73.20;;;31.30;;
5349;SDS011;2697;42.144;24.794;2023-12-20T07:49:59;53.10;;;27.37;;
5349;SDS011;2697;42.144;24.794;2023-12-20T07:52:25;60.23;;;29.67;;
5349;SDS011;2697;42.144;24.794;2023-12-20T07:54:51;56.60;;;27.47;;
5349;SDS011;2697;42.144;24.794;2023-12-20T07:57:16;52.87;;;26.10;;
5349;SDS011;2697;42.144;24.794;2023-12-20T07:59:42;53.60;;;25.50;;
5349;SDS011;2697;42.144;24.794;2023-12-20T08:02:09;95.97;;;44.67;;
5349;SDS011;2697;42.144;24.794;2023-12-20T08:04:34;98.37;;;47.00;;
5349;SDS011;2697;42.144;24.794;2023-12-20T08:07:00;83.33;;;41.50;;
5349;SDS011;2697;42.144;24.794;2023-12-20T08:09:25;90.73;;;45.10;;
5349;SDS011;2697;42.144;24.794;2023-12-20T08:11:51;75.67;;;36.63;;
5349;SDS011;2697;42.144;24.794;2023-12-20T08:14:16;95.40;;;41.90;;
5349;SDS011;2697;42.144;24.794;2023-12-20T08:16:41;56.93;;;30.30;;
5349;SDS011;2697;42.144;24.794;2023-12-20T08:19:07;54.67;;;25.63;;
5349;SDS011;2697;42.144;24.794;2023-12-20T08:21:32;65.43;;;32.77;;
5349;SDS011;2697;42.144;24.794;2023-12-20T08:23:58;46.47;;;26.70;;
5349;SDS011;2697;42.144;24.794;2023-12-20T08:26:25;44.83;;;23.47;;
5349;SDS011;2697;42.144;24.794;2023-12-20T08:28:51;35.53;;;17.77;;
5349;SDS011;2697;42.144;24.794;2023-12-20T08:31:17;38.07;;;21.13;;
5349;SDS011;2697;42.144;24.794;2023-12-20T08:33:44;33.43;;;18.20;;
5349;SDS011;2697;42.144;24.794;2023-12-20T08:36:11;39.37;;;19.37;;
5349;SDS011;2697;42.144;24.794;2023-12-20T08:38:36;41.63;;;16.97;;
5349;SDS011;2697;42.144;24.794;2023-12-20T08:41:02;36.07;;;16.80;;
5349;SDS011;2697;42.144;24.794;2023-12-20T08:43:30;36.53;;;18.97;;
5349;SDS011;2697;42.144;24.794;2023-12-20T08:46:01;29.80;;;17.93;;
5349;SDS011;2697;42.144;24.794;2023-12-20T08:48:27;41.07;;;19.20;;
5349;SDS011;2697;42.144;24.794;2023-12-20T08:50:54;86.03;;;40.30;;
5349;SDS011;2697;42.144;24.794;2023-12-20T08:53:20;103.80;;;51.10;;
5349;SDS011;2697;42.144;24.794;2023-12-20T08:55:46;118.00;;;59.27;;
5349;SDS011;2697;42.144;24.794;2023-12-20T08:58:11;138.93;;;76.80;;
5349;SDS011;2697;42.144;24.794;2023-12-20T09:00:37;134.87;;;68.60;;
5349;SDS011;2697;42.144;24.794;2023-12-20T09:03:03;142.60;;;69.60;;
5349;SDS011;2697;42.144;24.794;2023-12-20T09:05:30;120.13;;;61.00;;
5349;SDS011;2697;42.144;24.794;2023-12-20T09:07:56;115.53;;;58.33;;
5349;SDS011;2697;42.144;24.794;2023-12-20T09:10:21;112.53;;;60.37;;
5349;SDS011;2697;42.144;24.794;2023-12-20T09:12:53;113.03;;;56.57;;
5349;SDS011;2697;42.144;24.794;2023-12-20T09:15:25;120.67;;;58.73;;
5349;SDS011;2697;42.144;24.794;2023-12-20T09:17:51;107.43;;;56.03;;
5349;SDS011;2697;42.144;24.794;2023-12-20T09:20:17;125.73;;;57.23;;
5349;SDS011;2697;42.144;24.794;2023-12-20T09:22:43;111.60;;;57.87;;
5349;SDS011;2697;42.144;24.794;2023-12-20T09:25:12;101.33;;;55.80;;
5349;SDS011;2697;42.144;24.794;2023-12-20T09:27:38;107.83;;;56.50;;
5349;SDS011;2697;42.144;24.794;2023-12-20T09:30:04;109.50;;;55.77;;
5349;SDS011;2697;42.144;24.794;2023-12-20T09:32:30;104.23;;;58.37;;
5349;SDS011;2697;42.144;24.794;2023-12-20T09:34:56;104.63;;;57.47;;
5349;SDS011;2697;42.144;24.794;2023-12-20T09:37:21;101.33;;;51.80;;
5349;SDS011;2697;42.144;24.794;2023-12-20T09:39:46;93.00;;;47.10;;
5349;SDS011;2697;42.144;24.794;2023-12-20T09:42:12;85.43;;;43.10;;
5349;SDS011;2697;42.144;24.794;2023-12-20T09:44:46;87.50;;;44.60;;
5349;SDS011;2697;42.144;24.794;2023-12-20T09:47:12;76.77;;;40.07;;
5349;SDS011;2697;42.144;24.794;2023-12-20T09:49:40;79.00;;;38.70;;
5349;SDS011;2697;42.144;24.794;2023-12-20T09:52:07;69.77;;;37.27;;
5349;SDS011;2697;42.144;24.794;2023-12-20T09:54:34;65.27;;;35.33;;
5349;SDS011;2697;42.144;24.794;2023-12-20T09:57:00;65.40;;;34.03;;
5349;SDS011;2697;42.144;24.794;2023-12-20T09:59:25;72.37;;;37.70;;
5349;SDS011;2697;42.144;24.794;2023-12-20T10:01:50;60.90;;;30.50;;
5349;SDS011;2697;42.144;24.794;2023-12-20T10:04:19;63.43;;;30.63;;
5349;SDS011;2697;42.144;24.794;2023-12-20T10:06:45;57.73;;;29.67;;
5349;SDS011;2697;42.144;24.794;2023-12-20T10:09:11;57.50;;;28.13;;
5349;SDS011;2697;42.144;24.794;2023-12-20T10:11:37;46.00;;;24.57;;
5349;SDS011;2697;42.144;24.794;2023-12-20T10:14:03;55.40;;;26.47;;
5349;SDS011;2697;42.144;24.794;2023-12-20T10:16:29;50.97;;;21.50;;
5349;SDS011;2697;42.144;24.794;2023-12-20T10:18:56;43.30;;;21.30;;
5349;SDS011;2697;42.144;24.794;2023-12-20T10:21:22;48.43;;;22.03;;
5349;SDS011;2697;42.144;24.794;2023-12-20T10:23:49;48.07;;;21.30;;
5349;SDS011;2697;42.144;24.794;2023-12-20T10:26:24;44.43;;;21.60;;
5349;SDS011;2697;42.144;24.794;2023-12-20T10:28:54;33.83;;;17.80;;
5349;SDS011;2697;42.144;24.794;2023-12-20T10:33:59;22.90;;;13.13;;
5349;SDS011;2697;42.144;24.794;2023-12-20T10:36:27;24.70;;;11.97;;
5349;SDS011;2697;42.144;24.794;2023-12-20T10:38:53;22.73;;;11.43;;
5349;SDS011;2697;42.144;24.794;2023-12-20T10:41:24;27.23;;;10.10;;
5349;SDS011;2697;42.144;24.794;2023-12-20T10:43:59;20.57;;;9.90;;
5349;SDS011;2697;42.144;24.794;2023-12-20T10:46:26;18.53;;;10.53;;
5349;SDS011;2697;42.144;24.794;2023-12-20T10:48:53;19.30;;;11.40;;
5349;SDS011;2697;42.144;24.794;2023-12-20T10:51:20;30.13;;;11.20;;
5349;SDS011;2697;42.144;24.794;2023-12-20T10:53:49;22.93;;;10.93;;
5349;SDS011;2697;42.144;24.794;2023-12-20T10:56:19;25.67;;;10.83;;
5349;SDS011;2697;42.144;24.794;2023-12-20T10:58:46;20.53;;;9.97;;
5349;SDS011;2697;42.144;24.794;2023-12-20T11:01:13;20.70;;;10.93;;
5349;SDS011;2697;42.144;24.794;2023-12-20T11:03:41;30.53;;;10.87;;
5349;SDS011;2697;42.144;24.794;2023-12-20T11:15:06;34.07;;;10.47;;
5349;SDS011;2697;42.144;24.794;2023-12-20T11:17:32;21.67;;;11.93;;
5349;SDS011;2697;42.144;24.794;2023-12-20T11:22:29;29.43;;;12.10;;
5349;SDS011;2697;42.144;24.794;2023-12-20T11:25:06;34.73;;;15.47;;
5349;SDS011;2697;42.144;24.794;2023-12-20T11:27:33;27.90;;;12.67;;
5349;SDS011;2697;42.144;24.794;2023-12-20T11:29:59;52.70;;;16.23;;
5349;SDS011;2697;42.144;24.794;2023-12-20T11:32:31;32.20;;;15.93;;
5349;SDS011;2697;42.144;24.794;2023-12-20T11:34:59;29.90;;;15.10;;
5349;SDS011;2697;42.144;24.794;2023-12-20T11:37:37;50.60;;;19.30;;
5349;SDS011;2697;42.144;24.794;2023-12-20T11:40:07;36.53;;;18.90;;
5349;SDS011;2697;42.144;24.794;2023-12-20T11:42:39;60.90;;;17.93;;
5349;SDS011;2697;42.144;24.794;2023-12-20T11:45:13;31.63;;;17.37;;
5349;SDS011;2697;42.144;24.794;2023-12-20T11:47:40;61.67;;;23.40;;
5349;SDS011;2697;42.144;24.794;2023-12-20T11:50:11;36.00;;;18.40;;
5349;SDS011;2697;42.144;24.794;2023-12-20T11:52:37;48.53;;;20.03;;
5349;SDS011;2697;42.144;24.794;2023-12-20T11:55:02;48.67;;;21.17;;
5349;SDS011;2697;42.144;24.794;2023-12-20T11:57:29;35.53;;;17.90;;
5349;SDS011;2697;42.144;24.794;2023-12-20T11:59:55;34.77;;;18.20;;
5349;SDS011;2697;42.144;24.794;2023-12-20T12:02:21;40.93;;;18.63;;
5349;SDS011;2697;42.144;24.794;2023-12-20T12:04:48;32.83;;;16.60;;
5349;SDS011;2697;42.144;24.794;2023-12-20T12:07:13;47.83;;;16.97;;
5349;SDS011;2697;42.144;24.794;2023-12-20T12:09:39;34.27;;;14.67;;
5349;SDS011;2697;42.144;24.794;2023-12-20T12:12:04;31.87;;;14.93;;
5349;SDS011;2697;42.144;24.794;2023-12-20T12:14:30;28.70;;;15.33;;
5349;SDS011;2697;42.144;24.794;2023-12-20T12:16:56;37.67;;;18.20;;
5349;SDS011;2697;42.144;24.794;2023-12-20T12:19:25;37.90;;;16.53;;
5349;SDS011;2697;42.144;24.794;2023-12-20T12:21:51;35.73;;;17.43;;
5349;SDS011;2697;42.144;24.794;2023-12-20T12:24:47;46.63;;;20.27;;
5349;SDS011;2697;42.144;24.794;2023-12-20T12:27:14;42.97;;;20.20;;
5349;SDS011;2697;42.144;24.794;2023-12-20T12:29:41;37.90;;;19.20;;
5349;SDS011;2697;42.144;24.794;2023-12-20T12:32:24;32.70;;;18.30;;
5349;SDS011;2697;42.144;24.794;2023-12-20T12:34:50;43.60;;;18.77;;
5349;SDS011;2697;42.144;24.794;2023-12-20T12:37:15;35.53;;;16.40;;
5349;SDS011;2697;42.144;24.794;2023-12-20T12:39:41;35.53;;;15.40;;
5349;SDS011;2697;42.144;24.794;2023-12-20T12:42:06;40.17;;;17.70;;
5349;SDS011;2697;42.144;24.794;2023-12-20T12:44:31;39.87;;;18.73;;
5349;SDS011;2697;42.144;24.794;2023-12-20T12:46:57;33.77;;;16.57;;
5349;SDS011;2697;42.144;24.794;2023-12-20T12:49:22;44.80;;;16.17;;
5349;SDS011;2697;42.144;24.794;2023-12-20T12:51:48;38.47;;;16.03;;
5349;SDS011;2697;42.144;24.794;2023-12-20T12:54:13;32.47;;;16.90;;
5349;SDS011;2697;42.144;24.794;2023-12-20T12:56:41;36.73;;;16.57;;
5349;SDS011;2697;42.144;24.794;2023-12-20T12:59:07;31.87;;;15.07;;
5349;SDS011;2697;42.144;24.794;2023-12-20T13:01:33;36.23;;;16.20;;
5349;SDS011;2697;42.144;24.794;2023-12-20T13:03:58;30.23;;;14.97;;
5349;SDS011;2697;42.144;24.794;2023-12-20T13:06:26;40.80;;;17.87;;
5349;SDS011;2697;42.144;24.794;2023-12-20T13:08:52;33.50;;;17.57;;
5349;SDS011;2697;42.144;24.794;2023-12-20T13:11:17;52.77;;;17.20;;
5349;SDS011;2697;42.144;24.794;2023-12-20T13:13:42;32.83;;;15.33;;
5349;SDS011;2697;42.144;24.794;2023-12-20T13:16:08;49.00;;;15.30;;
5349;SDS011;2697;42.144;24.794;2023-12-20T13:18:33;32.90;;;15.80;;
5349;SDS011;2697;42.144;24.794;2023-12-20T13:20:59;36.43;;;14.57;;
5349;SDS011;2697;42.144;24.794;2023-12-20T13:23:24;35.73;;;15.60;;
5349;SDS011;2697;42.144;24.794;2023-12-20T13:25:49;48.80;;;15.93;;
5349;SDS011;2697;42.144;24.794;2023-12-20T13:28:15;37.03;;;16.00;;
5349;SDS011;2697;42.144;24.794;2023-12-20T13:30:40;35.00;;;14.73;;
5349;SDS011;2697;42.144;24.794;2023-12-20T13:33:06;26.67;;;14.00;;
5349;SDS011;2697;42.144;24.794;2023-12-20T13:35:32;27.57;;;14.37;;
5349;SDS011;2697;42.144;24.794;2023-12-20T13:37:58;35.93;;;14.10;;
5349;SDS011;2697;42.144;24.794;2023-12-20T13:40:24;33.93;;;15.30;;
5349;SDS011;2697;42.144;24.794;2023-12-20T13:42:49;32.80;;;14.17;;
5349;SDS011;2697;42.144;24.794;2023-12-20T13:45:15;40.97;;;14.63;;
5349;SDS011;2697;42.144;24.794;2023-12-20T13:47:41;29.30;;;14.60;;
5349;SDS011;2697;42.144;24.794;2023-12-20T13:50:06;34.00;;;13.70;;
5349;SDS011;2697;42.144;24.794;2023-12-20T13:52:32;23.77;;;12.70;;
5349;SDS011;2697;42.144;24.794;2023-12-20T13:54:57;44.93;;;15.03;;
5349;SDS011;2697;42.144;24.794;2023-12-20T13:57:23;26.63;;;14.03;;
5349;SDS011;2697;42.144;24.794;2023-12-20T13:59:48;44.17;;;14.27;;
5349;SDS011;2697;42.144;24.794;2023-12-20T14:02:13;43.13;;;15.37;;
5349;SDS011;2697;42.144;24.794;2023-12-20T14:04:39;34.30;;;14.50;;
5349;SDS011;2697;42.144;24.794;2023-12-20T14:07:04;45.13;;;16.00;;
5349;SDS011;2697;42.144;24.794;2023-12-20T14:09:30;37.53;;;14.67;;
5349;SDS011;2697;42.144;24.794;2023-12-20T14:11:56;41.07;;;16.87;;
5349;SDS011;2697;42.144;24.794;2023-12-20T14:14:22;41.60;;;16.17;;
5349;SDS011;2697;42.144;24.794;2023-12-20T14:16:47;28.97;;;15.07;;
5349;SDS011;2697;42.144;24.794;2023-12-20T14:19:12;27.00;;;15.50;;
5349;SDS011;2697;42.144;24.794;2023-12-20T14:21:38;56.67;;;16.30;;
5349;SDS011;2697;42.144;24.794;2023-12-20T14:24:03;41.20;;;17.80;;
5349;SDS011;2697;42.144;24.794;2023-12-20T14:26:29;32.20;;;14.20;;
5349;SDS011;2697;42.144;24.794;2023-12-20T14:28:56;49.10;;;15.43;;
5349;SDS011;2697;42.144;24.794;2023-12-20T14:31:21;29.40;;;14.80;;
5349;SDS011;2697;42.144;24.794;2023-12-20T14:33:49;30.60;;;14.97;;
5349;SDS011;2697;42.144;24.794;2023-12-20T14:36:15;36.23;;;15.10;;
5349;SDS011;2697;42.144;24.794;2023-12-20T14:38:42;38.07;;;15.07;;
5349;SDS011;2697;42.144;24.794;2023-12-20T14:41:08;45.63;;;16.40;;